Westport, Oklahoma
Current Conditions -  °F | °C
As of 4:55 PM on Tuesday 25 Nov 2014 (Local Time) from KOWP Reporting Station
Clear Clear  
Wind Chill: 51°   Ceiling: Unl
Heat Index: 51°   Visibility: 10mi
Dew Point: 21°   Wind: 3mph
Humidity: 31%   Direction: 190°S
Pressure: 30.13"   Gusts: NA
Location:  36.248°N, 96.4789°W
Report Text: KOWP 252255Z AUTO 19003KT 10SM CLR 11/M06 A3013 RMK AO2 T01061061
Loading
Personal Weather Stations






























Interactive Weather Map New forecast layout! Learn more

10-Day Weather Forecast

Advertisements
Track Severe Weather on mobile